createdAt,value
2023-03-29T00:01:42.532Z,98288.71
2023-03-29T00:04:14.099Z,98291.11
2023-03-29T00:06:42.512Z,98288.54
2023-03-29T00:09:10.760Z,98289.54
2023-03-29T00:11:40.045Z,98278.50
2023-03-29T00:14:08.319Z,98274.05
2023-03-29T00:16:36.789Z,98277.32
2023-03-29T00:19:05.099Z,98278.91
2023-03-29T00:21:33.258Z,98279.11
2023-03-29T00:24:01.589Z,98276.54
2023-03-29T00:26:29.860Z,98279.31
2023-03-29T00:28:58.487Z,98285.80
2023-03-29T00:31:27.679Z,98287.64
2023-03-29T00:33:55.908Z,98286.92
2023-03-29T00:36:23.991Z,98287.89
2023-03-29T00:38:52.569Z,98291.50
2023-03-29T00:41:21.316Z,98289.66
2023-03-29T00:43:53.341Z,98288.27
2023-03-29T00:46:22.430Z,98285.98
2023-03-29T00:48:52.736Z,98282.92
2023-03-29T00:51:22.190Z,98287.73
2023-03-29T00:53:52.371Z,98291.54
2023-03-29T00:56:39.955Z,98291.23
2023-03-29T00:59:22.909Z,98292.44
2023-03-29T01:01:55.114Z,98302.80
2023-03-29T01:04:29.678Z,98305.38
2023-03-29T01:07:06.431Z,98317.89
2023-03-29T01:09:38.234Z,98317.86
2023-03-29T01:12:14.308Z,98330.92
2023-03-29T01:14:46.269Z,98340.20
2023-03-29T01:17:14.952Z,98347.20
2023-03-29T01:19:50.300Z,98352.52
2023-03-29T01:22:18.777Z,98359.21
2023-03-29T01:24:55.841Z,98365.77
2023-03-29T01:27:39.366Z,98362.86
2023-03-29T01:30:20.975Z,98359.27
2023-03-29T01:32:55.781Z,98359.76
2023-03-29T01:35:44.911Z,98363.54
2023-03-29T01:38:15.573Z,98368.02
2023-03-29T01:40:43.856Z,98373.34
2023-03-29T01:43:24.646Z,98378.33
2023-03-29T01:46:08.232Z,98377.83
2023-03-29T01:48:57.698Z,98376.66
2023-03-29T01:51:53.881Z,98381.81
2023-03-29T01:54:24.660Z,98389.16
2023-03-29T01:56:53.171Z,98393.23
2023-03-29T01:59:23.181Z,98401.27
2023-03-29T02:01:53.846Z,98403.14
2023-03-29T02:04:36.423Z,98409.31
2023-03-29T02:07:06.180Z,98411.03
2023-03-29T02:09:36.207Z,98411.20
2023-03-29T02:12:06.143Z,98420.66
2023-03-29T02:14:35.269Z,98431.14
2023-03-29T02:17:14.805Z,98440.09
2023-03-29T02:19:43.440Z,98440.61
2023-03-29T02:22:11.505Z,98451.60
2023-03-29T02:24:42.934Z,98458.80
2023-03-29T02:27:11.005Z,98453.80
2023-03-29T02:29:39.317Z,98463.57
2023-03-29T02:32:16.850Z,98464.78
2023-03-29T02:35:07.463Z,98468.23
2023-03-29T02:37:36.484Z,98467.87
2023-03-29T02:40:08.204Z,98476.11
2023-03-29T02:42:37.541Z,98481.09
2023-03-29T02:45:08.310Z,98478.52
2023-03-29T02:47:42.656Z,98476.98
2023-03-29T02:50:10.949Z,98479.55
2023-03-29T02:52:43.302Z,98479.90
2023-03-29T02:55:15.047Z,98480.05
2023-03-29T02:57:45.640Z,98476.95
2023-03-29T03:00:14.852Z,98479.02
2023-03-29T03:02:44.437Z,98478.70
2023-03-29T03:05:14.419Z,98481.44
2023-03-29T03:07:43.834Z,98482.62
2023-03-29T03:10:12.875Z,98485.70
2023-03-29T03:12:47.927Z,98482.93
2023-03-29T03:15:16.556Z,98485.35
2023-03-29T03:17:44.777Z,98486.36
2023-03-29T03:20:13.959Z,98485.48
2023-03-29T03:22:48.971Z,98486.87
2023-03-29T03:25:23.709Z,98488.80
2023-03-29T03:27:53.691Z,98494.43
2023-03-29T03:30:23.642Z,98496.85
2023-03-29T03:33:21.266Z,98503.41
2023-03-29T03:36:10.301Z,98513.05
2023-03-29T03:38:45.475Z,98511.52
2023-03-29T03:41:13.846Z,98510.66
2023-03-29T03:43:48.747Z,98507.23
2023-03-29T03:46:17.333Z,98504.09
2023-03-29T03:48:46.403Z,98510.30
2023-03-29T03:51:22.383Z,98517.51
2023-03-29T03:53:51.130Z,98515.47
2023-03-29T03:56:42.429Z,98520.98
2023-03-29T03:59:33.692Z,98529.25
2023-03-29T04:02:08.198Z,98529.77
2023-03-29T04:04:39.481Z,98533.71
2023-03-29T04:07:27.755Z,98539.23
2023-03-29T04:10:09.332Z,98540.27
2023-03-29T04:12:38.172Z,98546.12
2023-03-29T04:15:07.691Z,98542.36
2023-03-29T04:17:37.397Z,98548.52
2023-03-29T04:20:35.375Z,98547.34
2023-03-29T04:23:04.087Z,98549.91
2023-03-29T04:25:32.577Z,98555.79
2023-03-29T04:28:31.624Z,98552.85
2023-03-29T04:31:12.429Z,98557.34
2023-03-29T04:34:03.582Z,98564.20
2023-03-29T04:36:33.786Z,98568.17
2023-03-29T04:39:02.156Z,98572.64
2023-03-29T04:41:32.749Z,98577.63
2023-03-29T04:44:07.172Z,98583.45
2023-03-29T04:46:37.896Z,98579.86
2023-03-29T04:49:12.777Z,98583.81
2023-03-29T04:51:44.170Z,98584.48
2023-03-29T04:54:13.993Z,98584.28
2023-03-29T04:56:56.922Z,98584.09
2023-03-29T04:59:45.636Z,98586.65
2023-03-29T05:02:24.240Z,98591.30
2023-03-29T05:04:53.686Z,98589.23
2023-03-29T05:07:29.890Z,98590.27
2023-03-29T05:09:58.117Z,98594.55
2023-03-29T05:12:26.321Z,98596.10
2023-03-29T05:14:57.694Z,98589.58
2023-03-29T05:17:27.545Z,98602.13
2023-03-29T05:20:01.471Z,98601.93
2023-03-29T05:22:31.671Z,98601.95
2023-03-29T05:24:59.756Z,98608.48
2023-03-29T05:27:30.001Z,98600.55
2023-03-29T05:30:05.786Z,98605.73
2023-03-29T05:33:10.601Z,98608.16
2023-03-29T05:35:40.614Z,98608.70
2023-03-29T05:38:09.613Z,98605.97
2023-03-29T05:40:38.720Z,98607.71
2023-03-29T05:43:27.555Z,98607.73
2023-03-29T05:45:56.077Z,98611.69
2023-03-29T05:48:25.039Z,98620.80
2023-03-29T05:50:54.657Z,98620.45
2023-03-29T05:53:25.096Z,98619.61
2023-03-29T05:55:53.316Z,98624.39
2023-03-29T05:58:23.122Z,98629.86
2023-03-29T06:01:00.851Z,98634.11
2023-03-29T06:03:53.635Z,98633.92
2023-03-29T06:06:24.080Z,98633.60
2023-03-29T06:08:52.641Z,98634.27
2023-03-29T06:11:41.474Z,98637.52
2023-03-29T06:14:29.148Z,98645.61
2023-03-29T06:17:06.898Z,98652.14
2023-03-29T06:19:35.056Z,98654.72
2023-03-29T06:22:03.442Z,98655.21
2023-03-29T06:24:36.713Z,98656.39
2023-03-29T06:27:10.079Z,98661.84
2023-03-29T06:29:38.647Z,98670.55
2023-03-29T06:32:11.243Z,98674.98
2023-03-29T06:34:50.014Z,98682.86
2023-03-29T06:37:33.050Z,98685.33
2023-03-29T06:40:13.488Z,98681.03
2023-03-29T06:42:46.695Z,98683.08
2023-03-29T06:45:36.404Z,98684.61
2023-03-29T06:48:08.215Z,98692.52
2023-03-29T06:50:39.897Z,98693.90
2023-03-29T06:53:13.637Z,98696.63
2023-03-29T06:55:42.642Z,98701.08
2023-03-29T06:58:45.164Z,98710.84
2023-03-29T07:01:28.718Z,98718.91
2023-03-29T07:04:14.085Z,98721.46
2023-03-29T07:07:20.733Z,98721.61
2023-03-29T07:09:55.741Z,98727.43
2023-03-29T07:13:02.136Z,98734.27
2023-03-29T07:15:31.093Z,98738.02
2023-03-29T07:18:33.980Z,98740.61
2023-03-29T07:21:03.034Z,98748.02
2023-03-29T07:23:31.982Z,98752.34
2023-03-29T07:26:00.383Z,98760.14
2023-03-29T07:28:29.269Z,98765.16
2023-03-29T07:31:06.895Z,98768.97
2023-03-29T07:33:38.502Z,98772.76
2023-03-29T07:36:09.913Z,98778.75
2023-03-29T07:38:45.725Z,98776.66
2023-03-29T07:41:18.386Z,98783.55
2023-03-29T07:43:51.977Z,98789.05
2023-03-29T07:46:26.929Z,98797.63
2023-03-29T07:48:56.935Z,98799.85
2023-03-29T07:51:25.548Z,98804.84
2023-03-29T07:54:00.835Z,98803.82
2023-03-29T07:56:49.727Z,98801.59
2023-03-29T07:59:22.470Z,98801.23
2023-03-29T08:02:00.931Z,98808.40
2023-03-29T08:04:33.837Z,98811.11
2023-03-29T08:07:27.491Z,98820.49
2023-03-29T08:10:16.108Z,98823.40
2023-03-29T08:13:21.876Z,98816.36
2023-03-29T08:16:09.310Z,98823.95
2023-03-29T08:18:42.309Z,98830.48
2023-03-29T08:21:12.915Z,98838.72
2023-03-29T08:23:41.362Z,98836.82
2023-03-29T08:26:22.879Z,98840.75
2023-03-29T08:28:52.365Z,98841.05
2023-03-29T08:31:21.217Z,98841.23
2023-03-29T08:33:53.394Z,98842.66
2023-03-29T08:36:47.537Z,98847.15
2023-03-29T08:39:26.091Z,98847.80
2023-03-29T08:42:38.328Z,98846.52
2023-03-29T08:45:32.777Z,98848.34
2023-03-29T08:48:13.647Z,98849.48
2023-03-29T08:50:53.040Z,98857.19
2023-03-29T08:53:29.533Z,98858.02
2023-03-29T08:56:27.740Z,98862.63
2023-03-29T08:59:18.032Z,98865.02
2023-03-29T09:01:48.444Z,98872.07
2023-03-29T09:04:19.085Z,98872.08
2023-03-29T09:07:01.464Z,98875.33
2023-03-29T09:09:37.880Z,98873.77
2023-03-29T09:12:35.838Z,98873.98
2023-03-29T09:15:31.989Z,98878.67
2023-03-29T09:18:21.419Z,98878.85
2023-03-29T09:20:54.500Z,98883.67
2023-03-29T09:23:44.648Z,98884.66
2023-03-29T09:26:52.898Z,98886.80
2023-03-29T09:29:41.153Z,98891.36
2023-03-29T09:32:55.140Z,98894.77
2023-03-29T09:35:29.276Z,98896.93
2023-03-29T09:37:58.405Z,98898.37
2023-03-29T09:40:31.257Z,98906.85
2023-03-29T09:43:07.485Z,98908.55
2023-03-29T09:45:38.684Z,98915.07
2023-03-29T09:48:12.642Z,98918.15
2023-03-29T09:50:46.611Z,98917.93
2023-03-29T09:53:15.423Z,98921.71
2023-03-29T09:55:48.421Z,98920.54
2023-03-29T09:58:31.147Z,98927.48
2023-03-29T10:01:01.251Z,98937.03
2023-03-29T10:03:33.727Z,98947.77
2023-03-29T10:06:11.492Z,98945.72
2023-03-29T10:08:55.877Z,98948.14
2023-03-29T10:11:37.158Z,98954.87
2023-03-29T10:14:11.784Z,98960.52
2023-03-29T10:16:46.397Z,98967.75
2023-03-29T10:19:28.324Z,98965.71
2023-03-29T10:22:04.579Z,98972.46
2023-03-29T10:24:34.460Z,98971.40
2023-03-29T10:27:04.442Z,98971.21
2023-03-29T10:29:41.237Z,98979.14
2023-03-29T10:32:18.483Z,98977.56
2023-03-29T10:34:48.002Z,98987.20
2023-03-29T10:37:19.712Z,98987.18
2023-03-29T10:39:48.541Z,98990.42
2023-03-29T10:42:18.365Z,98995.23
2023-03-29T10:45:00.352Z,98993.88
2023-03-29T10:47:31.716Z,98989.77
2023-03-29T10:49:59.985Z,98996.18
2023-03-29T10:52:29.481Z,98993.13
2023-03-29T10:54:59.323Z,98996.91
2023-03-29T10:57:37.760Z,98997.39
2023-03-29T11:00:47.951Z,98998.73
2023-03-29T11:03:51.109Z,98998.41
2023-03-29T11:06:41.113Z,99003.39
2023-03-29T11:09:43.077Z,99002.33
2023-03-29T11:12:24.280Z,98998.33
2023-03-29T11:15:01.872Z,99003.81
2023-03-29T11:18:07.552Z,99004.32
2023-03-29T11:20:42.205Z,99004.80
2023-03-29T11:23:27.650Z,99005.99
2023-03-29T11:25:59.080Z,99010.61
2023-03-29T11:28:28.856Z,99011.47
2023-03-29T11:31:06.266Z,99015.59
2023-03-29T11:33:49.364Z,99013.48
2023-03-29T11:36:21.077Z,99014.11
2023-03-29T11:39:28.373Z,99013.05
2023-03-29T11:42:02.581Z,99012.13
2023-03-29T11:44:31.533Z,99015.38
2023-03-29T11:47:06.041Z,99014.30
2023-03-29T11:49:42.078Z,99016.48
2023-03-29T11:52:25.930Z,99016.08
2023-03-29T11:54:57.438Z,99018.42
2023-03-29T11:57:37.243Z,99019.23
2023-03-29T12:00:19.786Z,99021.27
2023-03-29T12:03:01.314Z,99024.77
2023-03-29T12:05:33.390Z,99030.29
2023-03-29T12:08:05.278Z,99031.48
2023-03-29T12:10:42.875Z,99034.77
2023-03-29T12:13:33.260Z,99037.23
2023-03-29T12:16:16.707Z,99035.76
2023-03-29T12:18:50.933Z,99035.98
2023-03-29T12:21:21.946Z,99037.20
2023-03-29T12:23:53.000Z,99037.17
2023-03-29T12:26:44.948Z,99040.76
2023-03-29T12:29:18.939Z,99048.27
2023-03-29T12:32:14.935Z,99050.65
2023-03-29T12:35:15.859Z,99057.15
2023-03-29T12:38:23.040Z,99048.60
2023-03-29T12:41:23.560Z,99052.31
2023-03-29T12:44:14.035Z,99055.22
2023-03-29T12:47:10.277Z,99056.27
2023-03-29T12:49:39.122Z,99053.35
2023-03-29T12:52:31.606Z,99056.27
2023-03-29T12:55:01.644Z,99064.35
2023-03-29T12:57:41.919Z,99064.31
2023-03-29T13:00:16.092Z,99066.23
2023-03-29T13:02:46.056Z,99065.88
2023-03-29T13:05:34.315Z,99069.15
2023-03-29T13:08:22.295Z,99071.73
2023-03-29T13:10:54.659Z,99070.20
2023-03-29T13:13:29.746Z,99071.49
2023-03-29T13:16:12.009Z,99080.73
2023-03-29T13:19:08.526Z,99074.94
2023-03-29T13:22:11.399Z,99086.06
2023-03-29T13:25:16.248Z,99087.33
2023-03-29T13:28:19.385Z,99090.85
2023-03-29T13:31:17.594Z,99094.53
2023-03-29T13:33:52.206Z,99099.40
2023-03-29T13:36:36.444Z,99097.86
2023-03-29T13:39:07.425Z,99105.98
2023-03-29T13:41:38.386Z,99109.23
2023-03-29T13:44:21.991Z,99118.33
2023-03-29T13:46:50.872Z,99125.17
2023-03-29T13:49:25.742Z,99134.98
2023-03-29T13:51:54.057Z,99138.24
2023-03-29T13:54:28.858Z,99140.67
2023-03-29T13:57:17.961Z,99153.98
2023-03-29T14:00:13.242Z,99159.19
2023-03-29T14:02:57.814Z,99166.44
2023-03-29T14:05:29.590Z,99171.78
2023-03-29T14:07:58.017Z,99175.75
2023-03-29T14:10:39.286Z,99181.29
2023-03-29T14:13:10.974Z,99182.81
2023-03-29T14:15:47.716Z,99189.71
2023-03-29T14:18:18.429Z,99188.82
2023-03-29T14:20:46.859Z,99196.05
2023-03-29T14:23:24.108Z,99200.56
2023-03-29T14:25:52.421Z,99199.37
2023-03-29T14:28:21.849Z,99199.57
2023-03-29T14:30:52.739Z,99198.02
2023-03-29T14:33:29.025Z,99207.52
2023-03-29T14:35:58.443Z,99209.95
2023-03-29T14:38:27.214Z,99211.85
2023-03-29T14:40:59.056Z,99213.58
2023-03-29T14:43:31.478Z,99217.73
2023-03-29T14:46:01.593Z,99224.63
2023-03-29T14:48:33.358Z,99222.21
2023-03-29T14:51:01.673Z,99226.35
2023-03-29T14:53:32.039Z,99229.97
2023-03-29T14:56:00.221Z,99235.84
2023-03-29T14:58:31.873Z,99233.08
2023-03-29T15:01:08.106Z,99234.30
2023-03-29T15:04:04.227Z,99236.19
2023-03-29T15:06:32.730Z,99243.06
2023-03-29T15:09:06.550Z,99251.00
2023-03-29T15:11:36.123Z,99251.18
2023-03-29T15:14:05.968Z,99253.09
2023-03-29T15:16:37.813Z,99254.30
2023-03-29T15:19:06.421Z,99255.69
2023-03-29T15:21:36.213Z,99259.65
2023-03-29T15:24:05.260Z,99260.89
2023-03-29T15:26:36.121Z,99264.35
2023-03-29T15:29:10.861Z,99266.94
2023-03-29T15:31:40.337Z,99271.41
2023-03-29T15:34:11.008Z,99276.76
2023-03-29T15:36:45.274Z,99276.44
2023-03-29T15:39:17.308Z,99279.36
2023-03-29T15:41:46.568Z,99281.09
2023-03-29T15:44:17.547Z,99283.48
2023-03-29T15:46:46.114Z,99291.95
2023-03-29T15:49:14.321Z,99300.05
2023-03-29T15:51:44.277Z,99301.61
2023-03-29T15:54:13.469Z,99301.09
2023-03-29T15:57:15.024Z,99301.45
2023-03-29T15:59:44.536Z,99308.89
2023-03-29T16:02:14.097Z,99318.70
2023-03-29T16:04:43.057Z,99316.46
2023-03-29T16:07:15.704Z,99321.98
2023-03-29T16:09:45.301Z,99314.92
2023-03-29T16:12:13.557Z,99320.44
2023-03-29T16:14:43.228Z,99319.07
2023-03-29T16:17:12.512Z,99324.08
2023-03-29T16:19:49.084Z,99329.24
2023-03-29T16:22:17.114Z,99329.93
2023-03-29T16:24:45.746Z,99328.73
2023-03-29T16:27:16.794Z,99326.84
2023-03-29T16:29:45.367Z,99326.84
2023-03-29T16:32:13.474Z,99323.21
2023-03-29T16:34:43.467Z,99327.70
2023-03-29T16:37:11.445Z,99328.55
2023-03-29T16:39:40.155Z,99324.94
2023-03-29T16:42:09.645Z,99325.45
2023-03-29T16:44:37.754Z,99330.10
2023-03-29T16:47:05.985Z,99336.84
2023-03-29T16:49:34.691Z,99343.89
2023-03-29T16:52:08.899Z,99347.88
2023-03-29T16:54:37.170Z,99348.21
2023-03-29T16:57:07.189Z,99358.04
2023-03-29T16:59:36.622Z,99362.52
2023-03-29T17:02:04.662Z,99365.11
2023-03-29T17:04:32.953Z,99369.42
2023-03-29T17:07:01.715Z,99373.73
2023-03-29T17:09:30.100Z,99373.90
2023-03-29T17:11:58.171Z,99375.47
2023-03-29T17:14:26.646Z,99377.54
2023-03-29T17:16:54.690Z,99385.27
2023-03-29T17:19:22.919Z,99388.38
2023-03-29T17:21:51.068Z,99392.34
2023-03-29T17:24:21.045Z,99390.10
2023-03-29T17:26:49.219Z,99390.61
2023-03-29T17:29:17.318Z,99394.58
2023-03-29T17:31:49.437Z,99397.50
2023-03-29T17:34:19.259Z,99397.68
2023-03-29T17:36:47.563Z,99407.50
2023-03-29T17:39:15.694Z,99402.16
2023-03-29T17:41:43.816Z,99409.38
2023-03-29T17:44:17.018Z,99408.69
2023-03-29T17:46:45.463Z,99411.62
2023-03-29T17:49:16.892Z,99412.14
2023-03-29T17:51:44.966Z,99413.70
2023-03-29T17:54:12.979Z,99417.13
2023-03-29T17:56:41.642Z,99418.34
2023-03-29T17:59:09.774Z,99423.52
2023-03-29T18:01:40.779Z,99428.48
2023-03-29T18:04:09.404Z,99434.02
2023-03-29T18:06:37.615Z,99433.85
2023-03-29T18:09:13.100Z,99445.89
2023-03-29T18:11:43.071Z,99442.63
2023-03-29T18:14:11.189Z,99449.69
2023-03-29T18:16:41.654Z,99454.15
2023-03-29T18:19:10.904Z,99457.78
2023-03-29T18:21:39.210Z,99462.42
2023-03-29T18:24:08.479Z,99458.12
2023-03-29T18:26:36.565Z,99458.46
2023-03-29T18:29:04.667Z,99460.02
2023-03-29T18:31:33.371Z,99460.70
2023-03-29T18:34:02.357Z,99463.29
2023-03-29T18:36:32.252Z,99457.42
2023-03-29T18:39:05.771Z,99460.02
2023-03-29T18:41:37.465Z,99465.54
2023-03-29T18:44:07.935Z,99468.45
2023-03-29T18:46:36.397Z,99475.67
2023-03-29T18:49:07.589Z,99472.41
2023-03-29T18:51:35.883Z,99474.47
2023-03-29T18:54:05.475Z,99476.19
2023-03-29T18:56:34.295Z,99477.58
2023-03-29T18:59:06.523Z,99472.06
2023-03-29T19:01:35.993Z,99473.78
2023-03-29T19:04:04.437Z,99477.91
2023-03-29T19:06:33.609Z,99480.16
2023-03-29T19:09:04.365Z,99483.08
2023-03-29T19:11:33.495Z,99482.05
2023-03-29T19:14:03.391Z,99479.48
2023-03-29T19:16:32.561Z,99476.36
2023-03-29T19:19:00.657Z,99476.88
2023-03-29T19:21:31.743Z,99482.73
2023-03-29T19:24:01.144Z,99484.11
2023-03-29T19:26:29.609Z,99484.80
2023-03-29T19:28:58.189Z,99484.27
2023-03-29T19:31:27.748Z,99482.38
2023-03-29T19:33:56.158Z,99481.86
2023-03-29T19:36:24.732Z,99487.70
2023-03-29T19:38:54.189Z,99484.42
2023-03-29T19:41:22.225Z,99492.35
2023-03-29T19:43:50.470Z,99487.34
2023-03-29T19:46:18.931Z,99492.51
2023-03-29T19:48:47.667Z,99497.48
2023-03-29T19:51:16.916Z,99496.45
2023-03-29T19:53:45.477Z,99494.73
2023-03-29T19:56:20.296Z,99495.75
2023-03-29T19:58:49.327Z,99494.37
2023-03-29T20:01:20.925Z,99496.08
2023-03-29T20:03:51.513Z,99495.55
2023-03-29T20:06:20.574Z,99496.92
2023-03-29T20:08:48.933Z,99502.42
2023-03-29T20:11:23.882Z,99500.00
2023-03-29T20:13:52.619Z,99497.42
2023-03-29T20:16:25.730Z,99495.87
2023-03-29T20:18:56.900Z,99499.48
2023-03-29T20:21:24.974Z,99506.86
2023-03-29T20:23:56.310Z,99506.35
2023-03-29T20:26:24.803Z,99508.92
2023-03-29T20:28:53.169Z,99512.54
2023-03-29T20:31:21.376Z,99508.74
2023-03-29T20:33:49.886Z,99513.05
2023-03-29T20:36:18.770Z,99511.48
2023-03-29T20:38:46.971Z,99516.11
2023-03-29T20:41:15.064Z,99514.73
2023-03-29T20:43:43.132Z,99515.08
2023-03-29T20:46:23.066Z,99517.83
2023-03-29T20:48:54.233Z,99520.23
2023-03-29T20:51:30.475Z,99523.66
2023-03-29T20:54:02.823Z,99525.89
2023-03-29T20:56:40.093Z,99528.62
2023-03-29T20:59:10.949Z,99531.88
2023-03-29T21:01:41.111Z,99530.84
2023-03-29T21:04:11.050Z,99532.70
2023-03-29T21:06:39.877Z,99533.90
2023-03-29T21:09:08.624Z,99532.70
2023-03-29T21:11:41.456Z,99532.00
2023-03-29T21:14:10.234Z,99534.21
2023-03-29T21:16:42.530Z,99535.58
2023-03-29T21:19:11.626Z,99539.69
2023-03-29T21:21:41.496Z,99537.27
2023-03-29T21:24:10.933Z,99536.58
2023-03-29T21:26:40.726Z,99537.77
2023-03-29T21:29:09.537Z,99538.80
2023-03-29T21:31:40.284Z,99542.21
2023-03-29T21:34:09.090Z,99538.60
2023-03-29T21:36:37.159Z,99537.91
2023-03-29T21:39:05.620Z,99536.19
2023-03-29T21:41:33.696Z,99543.54
2023-03-29T21:44:03.753Z,99542.00
2023-03-29T21:46:31.984Z,99541.83
2023-03-29T21:49:00.252Z,99545.59
2023-03-29T21:51:28.448Z,99544.21
2023-03-29T21:53:56.485Z,99543.01
2023-03-29T21:56:24.492Z,99550.20
2023-03-29T21:58:52.733Z,99552.27
2023-03-29T22:01:21.411Z,99552.94
2023-03-29T22:03:49.506Z,99555.52
2023-03-29T22:06:17.780Z,99556.88
2023-03-29T22:08:49.590Z,99558.23
2023-03-29T22:11:17.847Z,99556.52
2023-03-29T22:13:51.647Z,99557.54
2023-03-29T22:16:19.911Z,99558.39
2023-03-29T22:18:49.693Z,99557.68
2023-03-29T22:21:19.612Z,99555.62
2023-03-29T22:23:48.542Z,99557.66
2023-03-29T22:26:17.635Z,99563.32
2023-03-29T22:28:45.946Z,99562.63
2023-03-29T22:31:15.774Z,99563.98
2023-03-29T22:33:44.489Z,99562.77
2023-03-29T22:36:19.797Z,99563.98
2023-03-29T22:38:48.142Z,99560.36
2023-03-29T22:41:18.274Z,99560.35
2023-03-29T22:43:46.414Z,99558.63
2023-03-29T22:46:14.949Z,99560.55
2023-03-29T22:48:43.215Z,99559.84
2023-03-29T22:51:11.616Z,99553.99
2023-03-29T22:53:39.947Z,99552.97
2023-03-29T22:56:09.556Z,99554.34
2023-03-29T22:58:39.663Z,99553.65
2023-03-29T23:01:08.464Z,99555.19
2023-03-29T23:03:37.079Z,99558.98
2023-03-29T23:06:05.610Z,99557.42
2023-03-29T23:08:34.062Z,99560.36
2023-03-29T23:11:03.786Z,99557.42
2023-03-29T23:13:35.271Z,99557.94
2023-03-29T23:16:03.841Z,99557.25
2023-03-29T23:18:37.850Z,99562.91
2023-03-29T23:21:07.643Z,99562.73
2023-03-29T23:23:35.917Z,99563.08
2023-03-29T23:26:05.040Z,99564.96
2023-03-29T23:28:34.652Z,99568.38
2023-03-29T23:31:09.770Z,99565.13
2023-03-29T23:33:41.262Z,99563.04
2023-03-29T23:36:11.426Z,99563.21
2023-03-29T23:38:44.145Z,99562.52
2023-03-29T23:41:13.141Z,99563.02
2023-03-29T23:43:42.786Z,99562.85
2023-03-29T23:46:15.713Z,99564.22
2023-03-29T23:48:49.151Z,99566.11
2023-03-29T23:51:28.169Z,99565.77
2023-03-29T23:53:56.967Z,99570.22
2023-03-29T23:56:29.252Z,99566.95
2023-03-29T23:58:57.612Z,99565.73
